Pagrindinis puslapis
METAR-TAF:

METAR-TAF

Oro uostai :

Seinejokis-Ilmajoki, Suomija

platuma: 62-41-37N, ilguma: 022-49-55E, Aukštis: 91 m

Dabartinis oras

Ataskaita buvo paskelbta 12 minutes, ne 16:50 UTC
Vėjas 10 kt iš Rytų/Pietryčių, svyruoja nuo Rytų ir Pietų/Pietryčių
Temperatūra 0°C
Drėgmė 86%
Slėgis 999 hPa
Matomumas: 8000 m
Išsisklaidę debesys ne aukštis 1100 ft
Apsiniaukę ne aukštis 1400 ft
lietus, sniegas

METAR: EFSI 291650Z AUTO 11010KT 090V150 8000 -RASN SCT011 OVC014 00/M02 Q0999

Laikas: 19:02 (17:02 UTC)


TAF: trūkstamas

Orai ataskaitas ir orų prognozės (METAR, TAF).

turimą stotys yra geltonos ir raudonos taškus žemėlapyje.

Perkelti pele per norėdami pamatyti stoties vardą.

Tada spustelėkite, norėdami matyti oro stebėjimo ir prognozės.

Norėdami pakeisti žemėlapį: spustelėkite ant žalios mygtukų su juodo kryžiaus žemyn,; žalią mygtuką su brūkšneliu, jei norite nutolinti; arba žalių rodyklių gretimoms žemėlapius.


METAR-TAF: